Terminal Aerodrome Forecast
Issued by NWS King Salmon, AK

Home | Current Version | Previous Version | Text Only | Print | Product List | Glossary On
Versions: 1 2 3 4 5 6 7 8 9 10 11 12 13 14 15 16 17 18 19 20 21
000
FTAK31 PANC 251532 AAA
TAFAKN
TAF AMD
PAKN 251532Z 2516/2612 21008KT P6SM OVC020
      TEMPO 2516/2519 3SM BR BKN004
     FM260000 24011G18KT P6SM VCSH SCT025 BKN050
     FM260900 24007KT P6SM VCFG SCT030=

USA.gov is the U.S. government's official web portal to all federal, state and local government web resources and services.